FW2102 Weather Reports


Display with metric or nautical units.
time (UTC)temp
F
wind
direction
speed
MPH
gust
MPH
rain 1hr
in
rain 24hr
in
rain mn
in
humidity
%
barometer
mb
20180920082124 53 45 0.0 0.0 0.00 0.00 0.00 94 1016.0
20180920081124 52 45 0.0 0.0 0.00 0.00 0.00 94 1016.0
20180920080124 53 45 0.0 0.0 0.00 0.00 0.00 94 1016.2
20180920075125 53 45 0.0 0.0 0.00 0.00 0.00 94 1016.3
20180920074124 53 45 0.0 0.0 0.00 0.00 0.00 94 1016.2
20180920073124 53 45 0.0 2.0 0.00 0.00 0.00 94 1016.0
20180920072124 53 45 0.0 0.0 0.00 0.00 0.00 94 1016.0
20180920071124 54 68 0.0 0.0 0.00 0.00 0.00 94 1015.8
20180920070124 54 68 0.0 2.0 0.00 0.00 0.00 93 1015.8
20180920065124 54 45 0.0 0.0 0.00 0.00 0.00 93 1016.0
20180920064127 54 45 0.0 2.0 0.00 0.00 0.00 93 1016.0
20180920063123 55 45 0.0 0.0 0.00 0.00 0.00 93 1015.8
20180920062125 55 45 0.0 2.0 0.00 0.00 0.00 93 1015.8
20180920061125 55 45 0.0 0.0 0.00 0.00 0.00 93 1015.8
20180920060124 55 45 0.0 0.0 0.00 0.00 0.00 92 1016.0
20180920055124 56 45 0.0 0.0 0.00 0.00 0.00 92 1016.0
20180920054124 56 68 0.0 0.0 0.00 0.00 0.00 92 1016.2
20180920053124 56 45 0.0 0.0 0.00 0.00 0.00 91 1016.2
20180920052123 57 23 0.0 0.0 0.00 0.00 0.00 91 1016.2
20180920051124 57 45 0.0 0.0 0.00 0.00 0.00 91 1016.3
20180920050126 58 45 0.0 0.0 0.00 0.00 0.00 91 1016.5
20180920045125 58 113 0.0 0.0 0.00 0.00 0.00 90 1016.5
20180920044123 58 90 0.0 0.0 0.00 0.00 0.00 90 1016.5
20180920043124 58 90 0.0 0.0 0.00 0.00 0.00 90 1016.5
20180920042124 58 90 0.0 0.0 0.00 0.00 0.00 90 1016.5
20180920041143 58 90 0.0 0.0 0.00 0.00 0.00 90 1016.2
20180920040124 58 90 0.0 0.0 0.00 0.00 0.00 90 1016.2
20180920035124 58 90 0.0 0.0 0.00 0.00 0.00 90 1016.2
20180920034144 58 90 0.0 0.0 0.00 0.00 0.00 90 1016.2
20180920033124 59 90 0.0 0.0 0.00 0.00 0.00 88 1016.2
20180920032124 59 68 0.0 0.0 0.00 0.00 0.00 88 1016.2
20180920031125 59 68 0.0 0.0 0.00 0.00 0.00 88 1016.2
20180920030123 59 23 0.0 0.0 0.00 0.00 0.00 87 1016.0
20180920025124 59 45 0.0 0.0 0.00 0.00 0.00 87 1016.0
20180920024124 59 23 0.0 0.0 0.00 0.00 0.00 87 1015.8
20180920023124 60 180 0.0 0.0 0.00 0.00 0.00 87 1016.0
20180920022127 60 180 0.0 0.0 0.00 0.00 0.00 87 1016.0
20180920021126 60 23 0.0 0.0 0.00 0.00 0.00 87 1015.8
20180920020125 60 45 0.0 0.0 0.00 0.00 0.00 86 1015.8
20180920015124 61 158 0.0 0.0 0.00 0.00 0.00 86 1015.7
20180920014127 61 304 0.0 6.0 0.00 0.00 0.00 86 1015.5
20180920013124 61 236 0.0 4.0 0.00 0.00 0.00 86 1015.5
20180920012123 61 297 0.0 2.0 0.00 0.00 0.00 86 1015.5
20180920011126 62 190 1.0 3.0 0.00 0.00 0.00 86 1015.5
20180920010124 62 24 0.0 2.0 0.00 0.00 0.00 86 1015.2
20180920005124 62 96 1.0 4.0 0.00 0.00 0.00 85 1015.2
20180920004124 62 81 0.0 4.0 0.00 0.00 0.00 85 1015.0
20180920003123 63 40 1.0 3.0 0.00 0.00 0.00 85 1014.7
20180920002146 63 314 1.0 4.0 0.00 0.00 0.00 85 1014.7
20180920001127 64 249 2.0 18.0 0.00 0.00 0.00 85 1014.5
20180920000123 64 335 1.0 3.0 0.00 0.00 0.00 84 1014.5
20180919235123 64 323 1.0 4.0 0.00 0.00 0.00 84 1014.2
20180919234144 65 115 0.0 2.0 0.00 0.00 0.00 83 1014.0
20180919233123 65 312 1.0 2.0 0.00 0.00 0.00 82 1014.0
20180919232123 66 76 1.0 3.0 0.00 0.00 0.00 81 1013.8
20180919231123 66 320 1.0 3.0 0.00 0.00 0.00 81 1013.8
20180919230124 67 147 1.0 4.0 0.00 0.00 0.00 80 1013.5
20180919225123 68 110 2.0 4.0 0.00 0.00 0.00 78 1013.3
20180919224144 69 269 2.0 4.0 0.00 0.00 0.00 77 1013.2
20180919223123 70 119 2.0 5.0 0.00 0.00 0.00 74 1013.2
20180919222123 71 29 2.0 5.0 0.00 0.00 0.00 72 1013.2
20180919221123 72 99 1.0 4.0 0.00 0.00 0.00 70 1013.0
20180919220123 74 233 1.0 4.0 0.00 0.00 0.00 68 1013.0
20180919215123 76 94 1.0 3.0 0.00 0.00 0.00 65 1012.7
20180919214124 78 18 2.0 5.0 0.00 0.00 0.00 62 1012.3
20180919213123 79 66 2.0 4.0 0.00 0.00 0.00 60 1012.0
20180919212123 79 91 2.0 4.0 0.00 0.00 0.00 60 1012.0
20180919211124 75 39 2.0 4.0 0.00 0.00 0.00 67 1012.0
20180919210123 75 107 2.0 6.0 0.00 0.00 0.00 67 1012.0
20180919205125 75 92 2.0 4.0 0.00 0.00 0.00 66 1012.2
20180919204124 75 173 2.0 4.0 0.00 0.00 0.00 66 1012.2
20180919203124 75 96 2.0 3.0 0.00 0.00 0.00 66 1012.3
20180919202146 74 202 2.0 4.0 0.00 0.00 0.00 69 1012.3
20180919201123 75 113 3.0 5.0 0.00 0.00 0.00 68 1012.7
20180919200123 74 119 2.0 5.0 0.00 0.00 0.00 69 1012.7
20180919195123 75 6 3.0 6.0 0.00 0.00 0.00 66 1012.7
20180919194123 76 191 2.0 5.0 0.00 0.00 0.00 66 1012.5
20180919193123 77 102 2.0 5.0 0.00 0.00 0.00 63 1012.5
20180919192123 75 127 2.0 6.0 0.00 0.00 0.00 67 1012.5
20180919191123 75 95 2.0 5.0 0.00 0.00 0.00 65 1012.5
20180919190123 78 141 2.0 4.0 0.00 0.00 0.00 60 1012.5
20180919185123 76 130 2.0 5.0 0.00 0.00 0.00 63 1012.5
20180919184124 75 115 3.0 5.0 0.00 0.00 0.00 63 1012.5
20180919183123 75 41 3.0 6.0 0.00 0.00 0.00 64 1012.0
20180919182124 75 144 3.0 6.0 0.00 0.00 0.00 64 1011.7
20180919181123 74 97 2.0 6.0 0.00 0.00 0.00 65 1011.7
20180919180123 73 92 2.0 4.0 0.00 0.00 0.00 67 1011.7
20180919175123 75 103 2.0 4.0 0.00 0.00 0.00 63 1011.8
20180919174126 74 99 2.0 6.0 0.00 0.00 0.00 64 1012.0
20180919173126 74 90 2.0 5.0 0.00 0.00 0.00 64 1012.0
20180919172123 74 70 1.0 4.0 0.00 0.00 0.00 65 1012.0
20180919171123 73 82 2.0 4.0 0.00 0.00 0.00 66 1012.0
20180919170123 73 90 2.0 5.0 0.00 0.00 0.00 66 1012.2
20180919165123 73 208 2.0 6.0 0.00 0.00 0.00 67 1012.5
20180919164123 73 70 2.0 4.0 0.00 0.00 0.00 67 1012.3
20180919163123 73 105 3.0 5.0 0.00 0.00 0.00 67 1012.3
20180919162127 72 185 2.0 6.0 0.00 0.00 0.00 68 1012.3
20180919161124 73 189 2.0 4.0 0.00 0.00 0.00 68 1012.3
20180919160123 72 258 2.0 4.0 0.00 0.00 0.00 69 1012.3
20180919155123 72 126 3.0 5.0 0.00 0.00 0.00 70 1012.2
20180919154123 72 125 1.0 3.0 0.00 0.00 0.00 72 1012.5
20180919153123 72 218 3.0 5.0 0.00 0.00 0.00 71 1012.7
20180919152123 72 297 2.0 5.0 0.00 0.00 0.00 71 1012.7
20180919151145 72 242 1.0 5.0 0.00 0.00 0.00 73 1012.7
20180919150124 71 259 1.0 3.0 0.00 0.00 0.00 75 1012.7
20180919145124 69 240 1.0 3.0 0.00 0.00 0.00 78 1012.8
20180919144123 68 104 2.0 5.0 0.00 0.00 0.00 79 1012.7
20180919143124 67 219 2.0 5.0 0.00 0.00 0.00 81 1012.5
20180919142123 66 238 1.0 4.0 0.00 0.00 0.00 86 1012.5
20180919141124 65 123 2.0 5.0 0.00 0.00 0.00 89 1012.2
20180919140123 64 200 2.0 4.0 0.00 0.00 0.00 92 1012.0
20180919135143 64 359 1.0 4.0 0.00 0.00 0.00 96 1012.0
20180919134123 63 89 1.0 3.0 0.00 0.00 0.00 96 1011.7
20180919133123 64 289 1.0 4.0 0.00 0.00 0.00 97 1011.7
20180919132122 64 201 2.0 4.0 0.00 0.00 0.00 97 1011.7
20180919131123 64 60 2.0 5.0 0.00 0.00 0.00 98 1011.5
20180919130124 64 31 1.0 5.0 0.00 0.00 0.00 98 1011.5
20180919125123 64 10 1.0 4.0 0.00 0.00 0.00 99 1011.0
20180919124126 64 202 0.0 2.0 0.00 0.00 0.00 99 1011.0
20180919123123 64 270 0.0 2.0 0.00 0.00 0.00 99 1010.8
20180919122123 64 90 0.0 1.0 0.00 0.00 0.00 99 1010.8
20180919121124 64 338 0.0 0.0 0.00 0.00 0.00 99 1010.7
20180919120123 64 270 0.0 2.0 0.00 0.00 0.00 99 1010.5
20180919115123 64 135 0.0 0.0 0.00 0.00 0.00 99 1010.5
20180919114122 64 158 0.0 0.0 0.00 0.00 0.00 99 1010.3
20180919113123 64 23 0.0 0.0 0.00 0.00 0.00 99 1010.2
20180919112124 64 47 0.0 2.0 0.00 0.00 0.00 99 1010.2
20180919111125 64 23 0.0 0.0 0.00 0.00 0.00 99 1010.0
20180919110137 63 270 0.0 2.0 0.00 0.00 0.00 99 1009.8
20180919105123 63 23 0.0 0.0 0.00 0.00 0.00 99 1009.7
20180919104125 63 270 0.0 2.0 0.00 0.00 0.00 99 1009.5
20180919103123 63 270 0.0 2.0 0.00 0.00 0.00 99 1009.5
20180919102123 63 45 0.0 1.0 0.00 0.00 0.00 99 1009.5
20180919101122 63 60 0.0 1.0 0.00 0.00 0.00 99 1009.2
20180919100142 63 196 0.0 2.0 0.00 0.00 0.00 99 1009.0
20180919095126 63 225 0.0 0.0 0.00 0.00 0.00 98 1008.8
20180919094123 63 270 0.0 0.0 0.00 0.00 0.00 98 1008.8
20180919093143 63 203 0.0 0.0 0.00 0.00 0.00 98 1008.5
20180919092124 63 203 0.0 0.0 0.00 0.00 0.00 98 1008.5
20180919091123 63 270 0.0 2.0 0.00 0.00 0.00 98 1008.5
20180919090122 64 203 0.0 0.0 0.00 0.00 0.00 98 1008.5
20180919085123 64 203 0.0 0.0 0.00 0.01 0.00 98 1008.7
20180919084123 64 203 0.0 0.0 0.00 0.01 0.00 98 1008.7
20180919083122 64 270 0.0 2.0 0.00 0.01 0.00 98 1008.5